Time;durP1;ratioP1;P1;durP2;ratioP2;P2;SDS_P1;SDS_P2;PMS_P1;PMS_P2;Temp;Humidity;BMP_temperature;BMP_pressure;BME280_temperature;BME280_humidity;BME280_pressure;Samples;Min_cycle;Max_cycle;Signal;HPM_P1;HPM_P2
2021/10/24 00:02:08;;;;;;;0.40;0.30;;;5.30;99.90;;;;;;4936814;29;20530;-84
2021/10/24 00:04:35;;;;;;;0.30;0.30;;;5.30;99.90;;;;;;4936776;29;20459;-83
2021/10/24 00:07:01;;;;;;;0.43;0.43;;;5.30;99.90;;;;;;4936514;29;20443;-83
2021/10/24 00:09:29;;;;;;;1.47;0.33;;;5.30;99.90;;;;;;4937082;29;20451;-83
2021/10/24 00:11:56;;;;;;;0.40;0.30;;;5.30;99.90;;;;;;4936282;29;20463;-83
2021/10/24 00:14:23;;;;;;;0.30;0.30;;;5.30;99.90;;;;;;4936328;29;20455;-83
2021/10/24 00:16:50;;;;;;;0.30;0.30;;;5.30;99.90;;;;;;4936327;29;21002;-83
2021/10/24 00:19:17;;;;;;;0.30;0.30;;;5.20;99.90;;;;;;4936486;29;20416;-83
2021/10/24 00:21:43;;;;;;;0.50;0.50;;;5.20;99.90;;;;;;4936521;29;20485;-83
2021/10/24 00:24:10;;;;;;;0.30;0.30;;;5.10;99.90;;;;;;4936505;29;20477;-83
2021/10/24 00:26:38;;;;;;;0.50;0.50;;;5.10;99.90;;;;;;4936195;29;20448;-83
2021/10/24 00:29:05;;;;;;;0.30;0.30;;;5.00;99.90;;;;;;4936403;29;20451;-81
2021/10/24 00:31:32;;;;;;;0.40;0.40;;;5.00;99.90;;;;;;4936608;29;20912;-82
2021/10/24 00:33:59;;;;;;;0.30;0.30;;;5.00;99.90;;;;;;4936387;29;20459;-82
2021/10/24 00:36:26;;;;;;;0.30;0.20;;;4.90;99.90;;;;;;4936192;29;20586;-81
2021/10/24 00:38:53;;;;;;;0.30;0.30;;;4.90;99.90;;;;;;4936245;29;20462;-81
2021/10/24 00:41:20;;;;;;;0.53;0.53;;;5.00;99.90;;;;;;4935838;29;20462;-81
2021/10/24 00:43:48;;;;;;;0.40;0.40;;;4.90;99.90;;;;;;4936229;29;20439;-81
2021/10/24 00:46:14;;;;;;;0.70;0.60;;;4.80;99.90;;;;;;4935941;29;20435;-81
2021/10/24 00:48:41;;;;;;;0.30;0.30;;;4.80;99.90;;;;;;4936147;29;20459;-81
2021/10/24 00:51:09;;;;;;;0.50;0.50;;;4.80;99.90;;;;;;4935946;29;20812;-81
2021/10/24 00:53:36;;;;;;;0.40;0.40;;;4.80;99.90;;;;;;4936164;29;20485;-82
2021/10/24 00:56:03;;;;;;;0.30;0.27;;;4.80;99.90;;;;;;4936102;29;20471;-82
2021/10/24 00:58:30;;;;;;;0.30;0.20;;;4.90;99.90;;;;;;4935646;29;20941;-81
2021/10/24 01:00:58;;;;;;;0.33;0.30;;;4.80;99.90;;;;;;4936036;29;20455;-81
2021/10/24 01:03:25;;;;;;;0.30;0.30;;;4.80;99.90;;;;;;4935663;29;21062;-81
2021/10/24 01:05:52;;;;;;;1.37;0.33;;;4.80;99.90;;;;;;4936026;29;20447;-81
2021/10/24 01:08:18;;;;;;;1.50;0.93;;;4.80;99.90;;;;;;4936013;29;20451;-81
2021/10/24 01:10:45;;;;;;;0.70;0.50;;;4.70;99.90;;;;;;4935761;29;20447;-81
2021/10/24 01:13:12;;;;;;;3.53;0.43;;;4.70;99.90;;;;;;4939114;29;20503;-81
2021/10/24 01:15:39;;;;;;;1.80;0.50;;;4.60;99.90;;;;;;4939857;29;20450;-81
2021/10/24 01:18:08;;;;;;;0.30;0.30;;;4.60;99.90;;;;;;4939362;29;20499;-81
2021/10/24 01:20:35;;;;;;;0.30;0.20;;;4.60;99.90;;;;;;4939746;29;20458;-81
2021/10/24 01:23:03;;;;;;;0.40;0.40;;;4.50;99.90;;;;;;4939562;29;20475;-81
2021/10/24 01:25:30;;;;;;;1.13;1.13;;;4.40;99.90;;;;;;4939678;29;20823;-81
2021/10/24 01:27:57;;;;;;;0.53;0.53;;;4.40;99.90;;;;;;4939607;29;20443;-81
2021/10/24 01:30:24;;;;;;;0.70;0.70;;;4.30;99.90;;;;;;4939542;29;20550;-81
2021/10/24 01:32:51;;;;;;;0.40;0.30;;;4.30;99.90;;;;;;4939438;29;20482;-81
2021/10/24 01:35:18;;;;;;;0.40;0.37;;;4.30;99.90;;;;;;4939495;29;20447;-81
2021/10/24 01:37:45;;;;;;;0.60;0.60;;;4.20;99.90;;;;;;4939347;29;20478;-81
2021/10/24 01:40:16;;;;;;;0.30;0.30;;;4.20;99.90;;;;;;4939386;29;20455;-81
2021/10/24 01:42:47;;;;;;;0.30;0.30;;;4.30;99.90;;;;;;4939348;29;20579;-81
2021/10/24 01:45:15;;;;;;;0.30;0.30;;;4.20;99.90;;;;;;4938905;29;20514;-81
2021/10/24 01:47:42;;;;;;;0.40;0.40;;;4.20;99.90;;;;;;4939122;29;20459;-81
2021/10/24 01:50:09;;;;;;;0.33;0.27;;;4.30;99.90;;;;;;4939137;29;20459;-81
2021/10/24 01:52:42;;;;;;;0.70;0.43;;;4.30;99.90;;;;;;4938999;29;20474;-81
2021/10/24 01:55:10;;;;;;;0.30;0.30;;;4.20;99.90;;;;;;4939146;29;20435;-81
2021/10/24 01:57:39;;;;;;;0.30;0.30;;;4.20;99.90;;;;;;4939075;29;20494;-81
2021/10/24 02:00:07;;;;;;;0.40;0.37;;;4.10;99.90;;;;;;4938729;29;20462;-81
2021/10/24 02:02:34;;;;;;;0.30;0.30;;;4.10;99.90;;;;;;4938766;29;20469;-81
2021/10/24 02:05:00;;;;;;;0.40;0.40;;;4.00;99.90;;;;;;4938620;29;20935;-81
2021/10/24 02:07:27;;;;;;;0.30;0.30;;;4.00;99.90;;;;;;4938944;29;20518;-82
2021/10/24 02:09:54;;;;;;;0.30;0.20;;;4.00;99.90;;;;;;4939033;29;20462;-81
2021/10/24 02:12:22;;;;;;;0.30;0.30;;;4.00;99.90;;;;;;4938607;29;20895;-81
2021/10/24 02:14:50;;;;;;;0.60;0.33;;;3.90;99.90;;;;;;4938903;29;20455;-81
2021/10/24 02:17:17;;;;;;;1.63;1.53;;;3.90;99.90;;;;;;4938358;29;20503;-81
2021/10/24 02:19:43;;;;;;;0.83;0.83;;;3.90;99.90;;;;;;4938356;29;20439;-81
2021/10/24 02:22:10;;;;;;;0.30;0.20;;;3.90;99.90;;;;;;4938553;29;20475;-81
2021/10/24 02:24:37;;;;;;;1.80;0.30;;;3.90;99.90;;;;;;4937380;29;20466;-81
2021/10/24 02:27:04;;;;;;;0.50;0.50;;;3.90;99.90;;;;;;4938529;29;20443;-81
2021/10/24 02:29:31;;;;;;;0.30;0.30;;;3.90;99.90;;;;;;4938134;29;20973;-81
2021/10/24 02:31:59;;;;;;;0.50;0.40;;;3.80;99.90;;;;;;4938092;29;20843;-81
2021/10/24 02:34:26;;;;;;;0.40;0.37;;;3.80;99.90;;;;;;4938303;29;20458;-81
2021/10/24 02:36:53;;;;;;;0.47;0.47;;;3.70;99.90;;;;;;4938325;29;20493;-81
2021/10/24 02:39:19;;;;;;;0.40;0.40;;;3.70;99.90;;;;;;4938318;29;20454;-81
2021/10/24 02:41:47;;;;;;;0.40;0.30;;;3.70;99.90;;;;;;4937950;29;20463;-81
2021/10/24 02:44:14;;;;;;;0.30;0.30;;;3.60;99.90;;;;;;4938206;29;20518;-81
2021/10/24 02:46:40;;;;;;;0.40;0.40;;;3.70;99.90;;;;;;4938239;29;20459;-81
2021/10/24 02:49:09;;;;;;;0.30;0.30;;;3.70;99.90;;;;;;4937900;29;20443;-81
2021/10/24 02:51:36;;;;;;;0.30;0.20;;;3.70;99.90;;;;;;4937573;29;20845;-81
2021/10/24 02:54:03;;;;;;;0.30;0.30;;;3.70;99.90;;;;;;4938032;29;20463;-81
2021/10/24 02:56:30;;;;;;;0.50;0.30;;;3.80;99.90;;;;;;4938009;29;20447;-81
2021/10/24 02:58:57;;;;;;;0.30;0.30;;;3.80;99.90;;;;;;4937945;29;20491;-81
2021/10/24 03:01:24;;;;;;;0.30;0.30;;;3.70;99.90;;;;;;4937890;29;20462;-81
2021/10/24 03:03:50;;;;;;;0.30;0.20;;;3.70;99.90;;;;;;4937909;29;20451;-81
2021/10/24 03:06:19;;;;;;;0.50;0.50;;;3.70;99.90;;;;;;4938367;29;20463;-81
2021/10/24 03:08:45;;;;;;;0.30;0.30;;;3.70;99.90;;;;;;4937496;29;20451;-81
2021/10/24 03:11:12;;;;;;;0.40;0.40;;;3.70;99.90;;;;;;4937724;29;20435;-81
2021/10/24 03:13:39;;;;;;;0.30;0.20;;;3.70;99.90;;;;;;4937637;29;20796;-81
2021/10/24 03:16:05;;;;;;;0.30;0.20;;;3.70;99.90;;;;;;4937617;29;20462;-81
2021/10/24 03:18:32;;;;;;;0.67;0.63;;;3.60;99.90;;;;;;4937073;29;20506;-81
2021/10/24 03:20:59;;;;;;;0.50;0.50;;;3.60;99.90;;;;;;4937590;29;20455;-81
2021/10/24 03:23:27;;;;;;;0.30;0.30;;;3.70;99.90;;;;;;4937212;29;20808;-81
2021/10/24 03:25:54;;;;;;;0.30;0.30;;;3.70;99.90;;;;;;4937504;29;20447;-81
2021/10/24 03:28:20;;;;;;;0.87;0.87;;;3.70;99.90;;;;;;4937525;29;20455;-81
2021/10/24 03:30:47;;;;;;;0.70;0.70;;;3.70;99.90;;;;;;4937019;29;20952;-81
2021/10/24 03:33:14;;;;;;;0.30;0.30;;;3.70;99.90;;;;;;4936978;29;20831;-82
2021/10/24 03:35:41;;;;;;;0.30;0.30;;;3.70;99.90;;;;;;4936835;29;20458;-81
2021/10/24 03:38:07;;;;;;;0.30;0.20;;;3.60;99.90;;;;;;4936943;29;20482;-81
2021/10/24 03:40:36;;;;;;;0.60;0.40;;;3.60;99.90;;;;;;4937242;29;20455;-81
2021/10/24 03:43:02;;;;;;;0.30;0.30;;;3.70;99.90;;;;;;4937083;29;20471;-81
2021/10/24 03:45:29;;;;;;;0.30;0.30;;;3.60;99.90;;;;;;4937117;29;20462;-81
2021/10/24 03:47:56;;;;;;;0.40;0.30;;;3.60;99.90;;;;;;4937048;29;20455;-81
2021/10/24 03:50:23;;;;;;;0.30;0.30;;;3.50;99.90;;;;;;4936744;29;20829;-81
2021/10/24 03:52:50;;;;;;;0.30;0.20;;;3.50;99.90;;;;;;4936948;29;20475;-81
2021/10/24 03:55:17;;;;;;;0.30;0.30;;;3.50;99.90;;;;;;4936954;29;20447;-81
2021/10/24 03:57:45;;;;;;;0.30;0.20;;;3.50;99.90;;;;;;4936844;29;20483;-81
2021/10/24 04:00:13;;;;;;;0.30;0.30;;;3.50;99.90;;;;;;4936583;29;20955;-81
2021/10/24 04:02:52;;;;;;;0.30;0.30;;;3.40;99.90;;;;;;4936819;29;20471;-81
2021/10/24 04:05:19;;;;;;;0.30;0.27;;;3.40;99.90;;;;;;4936803;29;20440;-81
2021/10/24 04:07:47;;;;;;;0.40;0.40;;;3.40;99.90;;;;;;4936454;29;20978;-81
2021/10/24 04:10:14;;;;;;;0.30;0.30;;;3.40;99.90;;;;;;4936699;29;20443;-81
2021/10/24 04:12:41;;;;;;;0.30;0.20;;;3.40;99.90;;;;;;4936550;29;20478;-81
2021/10/24 04:15:10;;;;;;;0.30;0.30;;;3.40;99.90;;;;;;4936634;29;20451;-81
2021/10/24 04:17:37;;;;;;;1.23;1.23;;;3.40;99.90;;;;;;4936189;29;20581;-81
2021/10/24 04:20:06;;;;;;;0.30;0.30;;;3.30;99.90;;;;;;4936466;29;20483;-81
2021/10/24 04:22:33;;;;;;;0.30;0.20;;;3.30;99.90;;;;;;4936342;29;20471;-81
2021/10/24 04:24:59;;;;;;;0.30;0.30;;;3.30;99.90;;;;;;4936297;29;20828;-81
2021/10/24 04:27:26;;;;;;;0.30;0.30;;;3.30;99.90;;;;;;4936408;29;20450;-81
2021/10/24 04:29:53;;;;;;;0.30;0.30;;;3.40;99.90;;;;;;4936417;29;20454;-81
2021/10/24 04:32:21;;;;;;;0.30;0.30;;;3.40;99.90;;;;;;4936302;29;20471;-81
2021/10/24 04:34:48;;;;;;;0.40;0.30;;;3.30;99.90;;;;;;4936333;29;20455;-81
2021/10/24 04:37:15;;;;;;;0.30;0.30;;;3.30;99.90;;;;;;4936268;29;20466;-81
2021/10/24 04:39:42;;;;;;;0.30;0.20;;;3.40;99.90;;;;;;4935896;29;21045;-81
2021/10/24 04:42:08;;;;;;;0.30;0.30;;;3.30;99.90;;;;;;4936074;29;20461;-81
2021/10/24 04:44:35;;;;;;;0.30;0.30;;;3.30;99.90;;;;;;4935906;29;20455;-81
2021/10/24 04:47:03;;;;;;;0.30;0.30;;;3.30;99.90;;;;;;4935397;29;20458;-81
2021/10/24 04:49:31;;;;;;;0.33;0.33;;;3.30;99.90;;;;;;4936231;29;20455;-81
2021/10/24 04:51:59;;;;;;;0.80;0.80;;;3.20;99.90;;;;;;4935839;29;20460;-81
2021/10/24 04:54:26;;;;;;;0.30;0.30;;;3.20;99.90;;;;;;4936109;29;20451;-81
2021/10/24 04:56:53;;;;;;;0.30;0.20;;;3.20;99.90;;;;;;4935785;29;20939;-81
2021/10/24 04:59:20;;;;;;;0.30;0.30;;;3.20;99.90;;;;;;4936027;29;20514;-81
2021/10/24 05:01:48;;;;;;;0.30;0.30;;;3.10;99.90;;;;;;4935985;29;20475;-81
2021/10/24 05:04:16;;;;;;;0.30;0.20;;;3.10;99.90;;;;;;4935735;29;20466;-81
2021/10/24 05:06:44;;;;;;;0.30;0.30;;;3.10;99.90;;;;;;4936035;29;20467;-81
2021/10/24 05:09:11;;;;;;;0.30;0.30;;;3.10;99.90;;;;;;4936006;29;20451;-81
2021/10/24 05:11:37;;;;;;;1.17;0.47;;;3.10;99.90;;;;;;4935915;29;20478;-81
2021/10/24 05:14:07;;;;;;;0.37;0.27;;;3.20;99.90;;;;;;4935672;29;20907;-81
2021/10/24 05:16:34;;;;;;;0.30;0.20;;;3.20;99.90;;;;;;4935798;29;20545;-81
2021/10/24 05:19:01;;;;;;;0.33;0.27;;;3.10;99.90;;;;;;4935522;29;20478;-81
2021/10/24 05:21:28;;;;;;;0.30;0.30;;;3.10;99.90;;;;;;4935714;29;20455;-81
2021/10/24 05:23:56;;;;;;;0.30;0.30;;;3.10;99.90;;;;;;4935922;29;20467;-81
2021/10/24 05:26:23;;;;;;;0.30;0.30;;;3.10;99.90;;;;;;4935717;29;20833;-81
2021/10/24 05:28:49;;;;;;;0.30;0.30;;;3.10;99.90;;;;;;4935876;29;20454;-81
2021/10/24 05:31:16;;;;;;;0.30;0.30;;;3.10;99.90;;;;;;4935758;29;20454;-81
2021/10/24 05:33:43;;;;;;;0.57;0.30;;;3.10;99.90;;;;;;4935800;29;20472;-81
2021/10/24 05:36:10;;;;;;;0.30;0.30;;;3.10;99.90;;;;;;4935393;29;21054;-81
2021/10/24 05:38:37;;;;;;;0.40;0.30;;;3.00;99.90;;;;;;4935560;29;20487;-81
2021/10/24 05:41:05;;;;;;;0.30;0.30;;;3.10;99.90;;;;;;4935716;29;20450;-81
2021/10/24 05:43:31;;;;;;;0.30;0.30;;;3.00;99.90;;;;;;4935621;29;20483;-81
2021/10/24 05:45:58;;;;;;;1.13;0.40;;;3.00;99.90;;;;;;4935358;29;20985;-81
2021/10/24 05:48:25;;;;;;;0.43;0.43;;;3.00;99.90;;;;;;4935642;29;20451;-80
2021/10/24 05:50:52;;;;;;;0.30;0.30;;;3.00;99.90;;;;;;4935657;29;20478;-81
2021/10/24 05:53:18;;;;;;;0.43;0.30;;;3.00;99.90;;;;;;4935480;29;20475;-81
2021/10/24 05:55:46;;;;;;;0.30;0.20;;;2.90;99.90;;;;;;4935592;29;20459;-81
2021/10/24 05:58:14;;;;;;;0.30;0.20;;;2.90;99.90;;;;;;4936956;29;20540;-80
2021/10/24 06:00:41;;;;;;;0.33;0.27;;;2.90;99.90;;;;;;4939019;29;20459;-81
2021/10/24 06:03:08;;;;;;;0.30;0.30;;;2.90;99.90;;;;;;4938537;29;20478;-81
2021/10/24 06:05:36;;;;;;;0.50;0.50;;;2.90;99.90;;;;;;4938719;29;20440;-81
2021/10/24 06:08:03;;;;;;;0.30;0.20;;;2.90;99.90;;;;;;4938888;29;20450;-81
2021/10/24 06:10:33;;;;;;;0.30;0.30;;;2.90;99.90;;;;;;4938870;29;20606;-81
2021/10/24 06:13:01;;;;;;;0.30;0.30;;;2.90;99.90;;;;;;4938719;29;20609;-81
2021/10/24 06:15:29;;;;;;;0.30;0.30;;;2.90;99.90;;;;;;4938678;29;20473;-81
2021/10/24 06:17:57;;;;;;;1.53;1.13;;;2.80;99.90;;;;;;4938313;29;20487;-81
2021/10/24 06:20:24;;;;;;;0.40;0.40;;;2.80;99.90;;;;;;4938750;29;20450;-81
2021/10/24 06:22:52;;;;;;;0.37;0.37;;;2.80;99.90;;;;;;4938532;29;20474;-81
2021/10/24 06:25:19;;;;;;;0.30;0.20;;;2.80;99.90;;;;;;4938367;29;20939;-81
2021/10/24 06:27:46;;;;;;;0.33;0.33;;;2.90;99.90;;;;;;4938466;29;20514;-81
2021/10/24 06:30:17;;;;;;;0.40;0.33;;;2.90;99.90;;;;;;4938749;29;20447;-81
2021/10/24 06:32:45;;;;;;;0.30;0.20;;;2.90;99.90;;;;;;4938637;29;20486;-81
2021/10/24 06:35:12;;;;;;;0.30;0.30;;;2.90;99.90;;;;;;4938358;29;20455;-80
2021/10/24 06:37:39;;;;;;;0.40;0.30;;;2.90;99.90;;;;;;4938363;29;20474;-80
2021/10/24 06:40:08;;;;;;;0.50;0.50;;;3.00;99.90;;;;;;4937993;29;20850;-80
2021/10/24 06:42:35;;;;;;;0.30;0.30;;;3.00;99.90;;;;;;4938255;29;20482;-80
2021/10/24 06:45:02;;;;;;;1.07;1.07;;;3.00;99.90;;;;;;4938947;29;20800;-80
2021/10/24 06:47:29;;;;;;;0.30;0.20;;;3.00;99.90;;;;;;4937996;29;20989;-80
2021/10/24 06:49:57;;;;;;;0.30;0.30;;;3.10;99.90;;;;;;4937915;29;20785;-81
2021/10/24 06:52:24;;;;;;;0.60;0.60;;;3.10;99.90;;;;;;4938076;29;20479;-81
2021/10/24 06:54:51;;;;;;;0.40;0.40;;;3.10;99.90;;;;;;4937709;29;20462;-80
2021/10/24 06:57:18;;;;;;;0.40;0.40;;;3.20;99.90;;;;;;4938050;29;20442;-81
2021/10/24 06:59:45;;;;;;;0.30;0.20;;;3.20;99.90;;;;;;4937944;29;20589;-81
2021/10/24 07:02:12;;;;;;;0.57;0.53;;;3.20;99.90;;;;;;4937883;29;20471;-81
2021/10/24 07:04:39;;;;;;;0.30;0.30;;;3.20;99.90;;;;;;4937637;29;20439;-81
2021/10/24 07:07:07;;;;;;;0.30;0.30;;;3.30;99.90;;;;;;4937899;29;20454;-81
2021/10/24 07:09:34;;;;;;;0.50;0.50;;;3.30;99.90;;;;;;4937075;29;20463;-80
2021/10/24 07:12:01;;;;;;;0.37;0.27;;;3.30;99.90;;;;;;4937650;29;20478;-80
2021/10/24 07:14:27;;;;;;;0.30;0.30;;;3.40;99.90;;;;;;4937676;29;20458;-80
2021/10/24 07:16:54;;;;;;;0.30;0.20;;;3.40;99.90;;;;;;4937643;29;20483;-80
2021/10/24 07:19:21;;;;;;;0.30;0.27;;;3.50;99.90;;;;;;4937568;29;20475;-80
2021/10/24 07:21:48;;;;;;;0.97;0.57;;;3.50;99.90;;;;;;4937066;29;20558;-81
2021/10/24 07:24:16;;;;;;;0.93;0.50;;;3.50;99.90;;;;;;4937956;29;20459;-90
2021/10/24 07:26:42;;;;;;;0.80;0.40;;;3.50;99.90;;;;;;4938199;29;20966;-91
2021/10/24 07:29:09;;;;;;;0.50;0.50;;;3.60;99.90;;;;;;4938463;29;20432;-91
2021/10/24 07:31:36;;;;;;;0.50;0.50;;;3.60;99.90;;;;;;4938609;29;20475;-91
2021/10/24 07:34:03;;;;;;;0.30;0.30;;;3.80;99.90;;;;;;4938780;29;20427;-91
2021/10/24 07:36:29;;;;;;;0.30;0.20;;;3.90;99.90;;;;;;4938505;29;20439;-91
2021/10/24 07:38:56;;;;;;;0.60;0.60;;;4.00;99.90;;;;;;4938285;29;20979;-92
2021/10/24 07:41:24;;;;;;;0.30;0.30;;;4.10;99.90;;;;;;4938151;29;20416;-91
2021/10/24 07:43:52;;;;;;;0.40;0.40;;;4.30;99.90;;;;;;4938108;29;20416;-92
2021/10/24 07:46:20;;;;;;;0.30;0.20;;;4.40;99.90;;;;;;4938041;29;20447;-91
2021/10/24 07:48:47;;;;;;;0.30;0.27;;;4.60;99.90;;;;;;4938134;29;20439;-92
2021/10/24 07:51:13;;;;;;;0.30;0.30;;;4.70;99.90;;;;;;4938004;29;20810;-91
2021/10/24 07:53:40;;;;;;;0.80;0.80;;;4.90;99.90;;;;;;4938525;29;20805;-91
2021/10/24 07:56:07;;;;;;;0.30;0.30;;;5.00;99.90;;;;;;4938292;29;20436;-91
2021/10/24 07:58:36;;;;;;;0.40;0.40;;;5.10;99.90;;;;;;4937881;29;20453;-91
2021/10/24 08:01:04;;;;;;;0.50;0.50;;;5.20;99.90;;;;;;4937962;29;20470;-91
2021/10/24 08:03:31;;;;;;;0.33;0.30;;;5.20;99.90;;;;;;4937814;29;20475;-91
2021/10/24 08:05:58;;;;;;;0.40;0.37;;;5.30;99.90;;;;;;4937748;29;20456;-91
2021/10/24 08:08:24;;;;;;;0.83;0.50;;;5.40;99.90;;;;;;4938371;29;20451;-91
2021/10/24 08:10:51;;;;;;;0.50;0.40;;;5.60;99.90;;;;;;4938022;29;20447;-91
2021/10/24 08:13:18;;;;;;;0.30;0.30;;;5.70;99.90;;;;;;4937875;29;20471;-91
2021/10/24 08:15:48;;;;;;;0.40;0.40;;;5.80;99.90;;;;;;4937775;29;20952;-90
2021/10/24 08:18:15;;;;;;;0.40;0.40;;;6.00;99.90;;;;;;4937266;29;21086;-92
2021/10/24 08:20:44;;;;;;;0.60;0.60;;;6.10;99.90;;;;;;4937381;29;20502;-91
2021/10/24 08:23:11;;;;;;;0.50;0.47;;;6.30;99.90;;;;;;4937047;29;20467;-91
2021/10/24 08:25:38;;;;;;;0.60;0.37;;;6.50;99.90;;;;;;4937638;29;20482;-92
2021/10/24 08:28:05;;;;;;;0.40;0.30;;;6.70;99.90;;;;;;4937718;29;20443;-91
2021/10/24 08:30:32;;;;;;;0.30;0.30;;;7.00;99.90;;;;;;4937802;29;20464;-91
2021/10/24 08:33:00;;;;;;;0.70;0.43;;;7.20;99.90;;;;;;4937260;29;20463;-89
2021/10/24 08:35:27;;;;;;;0.30;0.30;;;7.50;99.90;;;;;;4937421;29;20447;-91
2021/10/24 08:37:54;;;;;;;0.77;0.30;;;7.80;99.90;;;;;;4937565;29;20478;-92
2021/10/24 08:40:21;;;;;;;0.30;0.20;;;8.10;99.90;;;;;;4937026;29;20837;-91
2021/10/24 08:42:52;;;;;;;0.90;0.67;;;8.30;99.90;;;;;;4937306;29;20997;-91
2021/10/24 08:45:19;;;;;;;1.43;0.47;;;8.80;99.90;;;;;;4937356;29;20941;-91
2021/10/24 08:47:46;;;;;;;0.40;0.40;;;9.40;99.90;;;;;;4937042;29;20482;-83
2021/10/24 08:50:15;;;;;;;0.70;0.50;;;10.40;99.90;;;;;;4936140;29;20455;-82
2021/10/24 08:52:45;;;;;;;1.60;0.40;;;11.20;99.90;;;;;;4935732;29;21038;-81
2021/10/24 08:55:13;;;;;;;2.90;0.63;;;11.90;99.90;;;;;;4936274;29;20443;-83
2021/10/24 08:57:40;;;;;;;0.97;0.60;;;12.80;99.90;;;;;;4935821;29;20994;-83
2021/10/24 09:00:08;;;;;;;2.70;0.60;;;14.30;99.90;;;;;;4935709;29;20483;-83
2021/10/24 09:02:55;;;;;;;4.40;0.80;;;15.90;99.90;;;;;;4935903;29;20485;-83
2021/10/24 09:05:32;;;;;;;1.73;1.00;;;17.70;96.30;;;;;;4936057;29;20454;-84
2021/10/24 09:07:59;;;;;;;0.97;0.67;;;19.20;90.50;;;;;;4935862;29;20416;-83
2021/10/24 09:10:46;;;;;;;0.50;0.50;;;20.30;82.60;;;;;;4935855;29;20450;-83
2021/10/24 09:13:15;;;;;;;1.10;0.60;;;21.10;71.60;;;;;;4935960;29;20474;-81
2021/10/24 09:15:51;;;;;;;1.70;1.10;;;21.00;66.60;;;;;;4935942;29;20435;-82
2021/10/24 09:18:19;;;;;;;1.50;0.80;;;21.40;66.50;;;;;;4935636;29;20344;-85
2021/10/24 09:20:47;;;;;;;1.23;0.88;;;20.90;65.40;;;;;;4936057;29;20222;-87
2021/10/24 09:23:15;;;;;;;1.20;1.10;;;21.00;64.30;;;;;;4935945;29;20230;-87
2021/10/24 09:25:51;;;;;;;1.67;0.98;;;21.10;63.20;;;;;;4935918;29;20198;-86
2021/10/24 09:28:20;;;;;;;0.68;0.68;;;21.60;61.00;;;;;;4936157;29;20554;-86
2021/10/24 09:30:47;;;;;;;0.70;0.70;;;21.30;61.00;;;;;;4936154;29;20207;-86
2021/10/24 09:33:17;;;;;;;2.17;0.90;;;20.70;61.70;;;;;;4937467;29;20230;-85
2021/10/24 09:35:45;;;;;;;1.60;1.02;;;20.90;61.40;;;;;;4939662;29;20553;-85
2021/10/24 09:38:16;;;;;;;1.50;0.90;;;20.90;60.20;;;;;;4939436;29;20309;-87
2021/10/24 09:40:47;;;;;;;0.60;0.60;;;20.40;60.70;;;;;;4939414;29;20218;-81
2021/10/24 09:43:18;;;;;;;0.90;0.73;;;19.60;61.90;;;;;;4939211;29;20305;-81
2021/10/24 09:45:46;;;;;;;1.03;0.80;;;19.00;63.80;;;;;;4939387;29;20439;-82
2021/10/24 09:48:15;;;;;;;0.97;0.73;;;19.00;64.30;;;;;;4939321;29;20950;-81
2021/10/24 09:50:46;;;;;;;2.87;0.80;;;18.80;64.00;;;;;;4938906;29;20911;-81
2021/10/24 09:53:16;;;;;;;1.20;0.70;;;19.00;64.20;;;;;;4939196;29;20515;-82
2021/10/24 09:55:45;;;;;;;0.70;0.60;;;19.40;64.40;;;;;;4939145;29;20794;-81
2021/10/24 09:58:12;;;;;;;0.93;0.70;;;20.00;61.30;;;;;;4938838;29;20949;-81
2021/10/24 10:00:40;;;;;;;2.33;0.63;;;20.00;61.30;;;;;;4938981;29;20525;-82
2021/10/24 10:03:08;;;;;;;0.83;0.60;;;20.30;60.10;;;;;;4938971;29;20474;-81
2021/10/24 10:05:37;;;;;;;0.80;0.70;;;19.90;59.50;;;;;;4938760;29;20443;-82
2021/10/24 10:08:05;;;;;;;1.00;1.00;;;20.70;60.00;;;;;;4938924;29;20447;-82
2021/10/24 10:10:37;;;;;;;0.80;0.80;;;21.60;57.30;;;;;;4938812;29;20215;-83
2021/10/24 10:13:08;;;;;;;0.93;0.82;;;21.70;56.70;;;;;;4938744;29;20222;-83
2021/10/24 10:15:37;;;;;;;2.05;0.60;;;21.40;57.30;;;;;;4939337;29;20202;-83
2021/10/24 10:18:04;;;;;;;1.40;0.75;;;20.60;58.20;;;;;;4938359;29;20250;-83
2021/10/24 10:20:33;;;;;;;0.60;0.60;;;19.70;59.90;;;;;;4938278;29;20249;-83
2021/10/24 10:23:06;;;;;;;1.47;0.70;;;18.70;61.30;;;;;;4938624;29;20226;-83
2021/10/24 10:25:36;;;;;;;1.53;0.83;;;17.70;63.70;;;;;;4938716;29;20217;-83
2021/10/24 10:28:04;;;;;;;0.60;0.50;;;17.10;65.00;;;;;;4938655;29;20461;-83
2021/10/24 10:30:34;;;;;;;0.80;0.73;;;16.30;66.90;;;;;;4938304;29;20951;-83
2021/10/24 10:33:04;;;;;;;0.90;0.90;;;15.90;69.60;;;;;;4939152;29;20471;-83
2021/10/24 10:35:31;;;;;;;1.90;0.80;;;15.50;70.80;;;;;;4938679;29;20489;-83
2021/10/24 10:38:01;;;;;;;0.70;0.60;;;15.00;71.40;;;;;;4938481;29;20545;-83
2021/10/24 10:40:30;;;;;;;1.83;0.70;;;14.60;74.20;;;;;;4938313;29;20482;-83
2021/10/24 10:43:02;;;;;;;1.23;0.53;;;14.60;75.00;;;;;;4938286;29;20826;-83
2021/10/24 10:45:43;;;;;;;0.60;0.50;;;14.30;75.00;;;;;;4937064;29;20464;-83
2021/10/24 10:48:23;;;;;;;0.60;0.60;;;14.00;76.50;;;;;;4937971;29;20439;-83
2021/10/24 10:50:55;;;;;;;2.30;0.70;;;13.90;77.50;;;;;;4937874;29;20786;-82
2021/10/24 10:54:04;;;;;;;0.50;0.47;;;14.10;78.50;;;;;;4938120;29;20549;-83
2021/10/24 10:56:45;;;;;;;0.60;0.60;;;14.10;78.00;;;;;;4938589;29;20795;-82
2021/10/24 10:59:36;;;;;;;0.50;0.50;;;14.10;77.10;;;;;;4937672;29;20435;-83
2021/10/24 11:02:24;;;;;;;0.50;0.40;;;14.00;77.50;;;;;;4937684;29;20830;-84
2021/10/24 11:04:53;;;;;;;1.07;0.90;;;13.90;78.70;;;;;;4937689;29;20439;-83
2021/10/24 11:07:43;;;;;;;0.60;0.47;;;13.80;80.20;;;;;;4937863;29;20470;-83
2021/10/24 11:10:16;;;;;;;0.60;0.60;;;13.80;80.50;;;;;;4937564;29;21023;-82
2021/10/24 11:12:46;;;;;;;1.13;0.60;;;13.70;80.80;;;;;;4937483;29;20467;-82
2021/10/24 11:15:27;;;;;;;1.07;0.50;;;13.60;81.80;;;;;;4937957;29;20850;-82
2021/10/24 11:17:54;;;;;;;0.50;0.50;;;13.70;81.40;;;;;;4937534;29;20838;-83
2021/10/24 11:20:41;;;;;;;1.90;0.67;;;13.70;80.10;;;;;;4937281;29;20991;-83
2021/10/24 11:23:12;;;;;;;0.70;0.60;;;13.60;82.40;;;;;;4937605;29;20475;-83
2021/10/24 11:25:41;;;;;;;1.13;0.60;;;13.60;84.00;;;;;;4937992;29;20786;-83
2021/10/24 11:28:14;;;;;;;1.47;0.97;;;13.50;84.80;;;;;;4937455;29;20474;-82
2021/10/24 11:30:43;;;;;;;2.60;1.00;;;13.50;82.80;;;;;;4937193;29;20491;-83
2021/10/24 11:33:11;;;;;;;0.70;0.50;;;13.50;83.40;;;;;;4937059;29;20471;-83
2021/10/24 11:35:40;;;;;;;2.10;0.60;;;13.50;83.70;;;;;;4936982;29;20451;-84
2021/10/24 11:38:13;;;;;;;0.70;0.40;;;13.40;84.70;;;;;;4937330;29;20447;-84
2021/10/24 11:40:42;;;;;;;1.27;1.03;;;13.50;84.90;;;;;;4937229;29;20471;-84
2021/10/24 11:43:11;;;;;;;1.70;0.87;;;13.60;84.70;;;;;;4936812;29;20987;-83
2021/10/24 11:45:40;;;;;;;1.00;0.80;;;13.60;83.70;;;;;;4937136;29;20474;-83
2021/10/24 11:48:12;;;;;;;0.83;0.53;;;13.50;84.30;;;;;;4937137;29;20439;-83
2021/10/24 11:50:45;;;;;;;0.53;0.40;;;13.30;84.60;;;;;;4937287;29;20912;-83
2021/10/24 11:53:17;;;;;;;0.53;0.53;;;13.30;84.80;;;;;;4936667;29;20987;-83
2021/10/24 11:55:45;;;;;;;0.53;0.50;;;13.30;85.60;;;;;;4936756;29;20435;-83
2021/10/24 12:01:06;;;;;;;0.43;0.43;;;13.10;84.90;;;;;;4931493;29;20478;-91
2021/10/24 12:03:35;;;;;;;1.33;0.77;;;13.00;85.70;;;;;;4936988;29;20474;-83
2021/10/24 12:06:02;;;;;;;0.50;0.50;;;12.80;86.40;;;;;;4936849;29;20459;-83
2021/10/24 12:08:49;;;;;;;1.07;0.57;;;12.80;87.60;;;;;;4936389;29;20438;-83
2021/10/24 12:11:20;;;;;;;1.17;0.70;;;12.80;86.70;;;;;;4936605;29;20447;-83
2021/10/24 12:13:49;;;;;;;0.83;0.50;;;12.70;87.00;;;;;;4936930;29;20499;-83
2021/10/24 12:16:27;;;;;;;3.43;0.70;;;12.60;88.40;;;;;;4936411;29;20459;-80
2021/10/24 12:19:30;;;;;;;0.30;0.30;;;12.60;88.50;;;;;;4936348;29;20475;-82
2021/10/24 12:22:03;;;;;;;0.60;0.60;;;12.50;89.00;;;;;;4936299;29;20495;-82
2021/10/24 12:24:41;;;;;;;0.37;0.37;;;12.50;89.70;;;;;;4936278;29;20916;-81
2021/10/24 12:27:11;;;;;;;0.50;0.40;;;12.50;90.00;;;;;;4936274;29;20884;-81
2021/10/24 12:29:38;;;;;;;0.50;0.50;;;12.50;90.10;;;;;;4936970;29;20444;-82
2021/10/24 12:32:07;;;;;;;0.40;0.30;;;12.50;89.80;;;;;;4936280;29;20467;-82
2021/10/24 12:34:35;;;;;;;0.50;0.50;;;12.40;89.70;;;;;;4936076;29;20487;-82
2021/10/24 12:37:02;;;;;;;1.00;0.50;;;12.40;90.30;;;;;;4936529;29;20837;-81
2021/10/24 12:39:29;;;;;;;1.73;0.60;;;12.50;90.30;;;;;;4936276;29;20455;-81
2021/10/24 12:41:56;;;;;;;0.40;0.40;;;12.50;90.30;;;;;;4935768;29;20491;-82
2021/10/24 12:44:34;;;;;;;1.63;0.43;;;12.40;90.70;;;;;;4936405;29;20507;-82
2021/10/24 12:47:11;;;;;;;0.53;0.50;;;12.30;91.20;;;;;;4936193;29;20537;-82
2021/10/24 12:49:39;;;;;;;0.40;0.40;;;12.40;91.30;;;;;;4936268;29;20431;-81
2021/10/24 12:52:11;;;;;;;0.73;0.67;;;12.40;91.40;;;;;;4935947;29;20482;-82
2021/10/24 12:54:40;;;;;;;0.57;0.57;;;12.40;91.20;;;;;;4936204;29;20803;-82
2021/10/24 12:57:07;;;;;;;1.13;0.50;;;12.40;91.00;;;;;;4935999;29;20515;-82
2021/10/24 12:59:34;;;;;;;1.67;0.50;;;12.50;91.20;;;;;;4936058;29;20451;-82
2021/10/24 13:02:01;;;;;;;2.60;0.37;;;12.50;91.60;;;;;;4935803;29;20494;-82
2021/10/24 13:04:28;;;;;;;0.60;0.60;;;12.40;91.80;;;;;;4936272;29;20509;-82